sensor_id;sensor_type;location;lat;lon;timestamp;temperature;humidity
21487;DHT22;10905;50.822;4.336;2023-07-08T00:01:37;22.80;99.90
21487;DHT22;10905;50.822;4.336;2023-07-08T00:04:02;22.80;99.90
21487;DHT22;10905;50.822;4.336;2023-07-08T00:06:29;22.80;99.90
21487;DHT22;10905;50.822;4.336;2023-07-08T00:08:54;22.70;99.90
21487;DHT22;10905;50.822;4.336;2023-07-08T00:11:22;22.60;99.90
21487;DHT22;10905;50.822;4.336;2023-07-08T00:13:48;22.60;99.90
21487;DHT22;10905;50.822;4.336;2023-07-08T00:16:15;22.50;99.90
21487;DHT22;10905;50.822;4.336;2023-07-08T00:18:42;22.40;99.90
21487;DHT22;10905;50.822;4.336;2023-07-08T00:21:16;22.40;99.90
21487;DHT22;10905;50.822;4.336;2023-07-08T00:23:50;22.40;99.90
21487;DHT22;10905;50.822;4.336;2023-07-08T00:26:30;22.40;99.90
21487;DHT22;10905;50.822;4.336;2023-07-08T00:28:56;22.50;99.90
21487;DHT22;10905;50.822;4.336;2023-07-08T00:31:23;22.50;99.90
21487;DHT22;10905;50.822;4.336;2023-07-08T00:33:58;22.50;99.90
21487;DHT22;10905;50.822;4.336;2023-07-08T00:36:25;22.50;99.90
21487;DHT22;10905;50.822;4.336;2023-07-08T00:38:51;22.40;99.90
21487;DHT22;10905;50.822;4.336;2023-07-08T00:41:27;22.30;99.90
21487;DHT22;10905;50.822;4.336;2023-07-08T00:43:55;22.20;99.90
21487;DHT22;10905;50.822;4.336;2023-07-08T00:51:39;22.00;99.90
21487;DHT22;10905;50.822;4.336;2023-07-08T00:54:10;22.00;99.90
21487;DHT22;10905;50.822;4.336;2023-07-08T00:56:40;22.00;99.90
21487;DHT22;10905;50.822;4.336;2023-07-08T00:59:14;22.00;99.90
21487;DHT22;10905;50.822;4.336;2023-07-08T01:01:43;22.00;99.90
21487;DHT22;10905;50.822;4.336;2023-07-08T01:04:22;21.90;99.90
21487;DHT22;10905;50.822;4.336;2023-07-08T01:06:53;21.90;99.90
21487;DHT22;10905;50.822;4.336;2023-07-08T01:09:25;21.90;99.90
21487;DHT22;10905;50.822;4.336;2023-07-08T01:11:53;21.90;99.90
21487;DHT22;10905;50.822;4.336;2023-07-08T01:14:20;21.80;99.90
21487;DHT22;10905;50.822;4.336;2023-07-08T01:16:47;21.90;99.90
21487;DHT22;10905;50.822;4.336;2023-07-08T01:19:17;21.90;99.90
21487;DHT22;10905;50.822;4.336;2023-07-08T01:22:07;21.90;99.90
21487;DHT22;10905;50.822;4.336;2023-07-08T01:24:36;21.90;99.90
21487;DHT22;10905;50.822;4.336;2023-07-08T01:27:04;21.90;99.90
21487;DHT22;10905;50.822;4.336;2023-07-08T01:29:31;21.90;99.90
21487;DHT22;10905;50.822;4.336;2023-07-08T01:31:57;21.80;99.90
21487;DHT22;10905;50.822;4.336;2023-07-08T01:34:23;21.80;99.90
21487;DHT22;10905;50.822;4.336;2023-07-08T01:36:53;21.90;99.90
21487;DHT22;10905;50.822;4.336;2023-07-08T01:39:22;21.80;99.90
21487;DHT22;10905;50.822;4.336;2023-07-08T01:41:48;21.70;99.90
21487;DHT22;10905;50.822;4.336;2023-07-08T01:44:36;21.70;99.90
21487;DHT22;10905;50.822;4.336;2023-07-08T01:49:37;21.60;99.90
21487;DHT22;10905;50.822;4.336;2023-07-08T01:52:05;21.60;99.90
21487;DHT22;10905;50.822;4.336;2023-07-08T01:54:31;21.60;99.90
21487;DHT22;10905;50.822;4.336;2023-07-08T01:56:57;21.60;99.90
21487;DHT22;10905;50.822;4.336;2023-07-08T01:59:22;21.60;99.90
21487;DHT22;10905;50.822;4.336;2023-07-08T02:01:48;21.60;99.90
21487;DHT22;10905;50.822;4.336;2023-07-08T02:04:15;21.60;99.90
21487;DHT22;10905;50.822;4.336;2023-07-08T02:06:41;21.50;99.90
21487;DHT22;10905;50.822;4.336;2023-07-08T02:09:07;21.50;99.90
21487;DHT22;10905;50.822;4.336;2023-07-08T02:11:33;21.50;99.90
21487;DHT22;10905;50.822;4.336;2023-07-08T02:13:58;21.50;99.90
21487;DHT22;10905;50.822;4.336;2023-07-08T02:16:26;21.40;99.90
21487;DHT22;10905;50.822;4.336;2023-07-08T02:18:51;21.30;99.90
21487;DHT22;10905;50.822;4.336;2023-07-08T02:21:17;21.30;99.90
21487;DHT22;10905;50.822;4.336;2023-07-08T02:23:49;21.30;99.90
21487;DHT22;10905;50.822;4.336;2023-07-08T02:26:16;21.30;99.90
21487;DHT22;10905;50.822;4.336;2023-07-08T02:28:41;21.30;99.90
21487;DHT22;10905;50.822;4.336;2023-07-08T02:31:07;21.30;99.90
21487;DHT22;10905;50.822;4.336;2023-07-08T02:33:32;21.30;99.90
21487;DHT22;10905;50.822;4.336;2023-07-08T02:35:59;21.30;99.90
21487;DHT22;10905;50.822;4.336;2023-07-08T02:38:26;21.20;99.90
21487;DHT22;10905;50.822;4.336;2023-07-08T02:40:51;21.20;99.90
21487;DHT22;10905;50.822;4.336;2023-07-08T02:43:17;21.30;99.90
21487;DHT22;10905;50.822;4.336;2023-07-08T02:45:43;21.20;99.90
21487;DHT22;10905;50.822;4.336;2023-07-08T02:48:08;21.20;99.90
21487;DHT22;10905;50.822;4.336;2023-07-08T02:50:34;21.30;99.90
21487;DHT22;10905;50.822;4.336;2023-07-08T02:53:00;21.20;99.90
21487;DHT22;10905;50.822;4.336;2023-07-08T02:55:25;21.20;99.90
21487;DHT22;10905;50.822;4.336;2023-07-08T02:57:51;21.20;99.90
21487;DHT22;10905;50.822;4.336;2023-07-08T03:00:16;21.20;99.90
21487;DHT22;10905;50.822;4.336;2023-07-08T03:02:42;21.10;99.90
21487;DHT22;10905;50.822;4.336;2023-07-08T03:05:08;21.10;99.90
21487;DHT22;10905;50.822;4.336;2023-07-08T03:07:33;21.10;99.90
21487;DHT22;10905;50.822;4.336;2023-07-08T03:09:59;21.20;99.90
21487;DHT22;10905;50.822;4.336;2023-07-08T03:12:25;21.20;99.90
21487;DHT22;10905;50.822;4.336;2023-07-08T03:14:50;21.10;99.90
21487;DHT22;10905;50.822;4.336;2023-07-08T03:17:16;21.10;99.90
21487;DHT22;10905;50.822;4.336;2023-07-08T03:19:43;21.10;99.90
21487;DHT22;10905;50.822;4.336;2023-07-08T03:22:09;21.10;99.90
21487;DHT22;10905;50.822;4.336;2023-07-08T03:24:34;21.20;99.90
21487;DHT22;10905;50.822;4.336;2023-07-08T03:27:00;21.10;99.90
21487;DHT22;10905;50.822;4.336;2023-07-08T03:29:30;21.10;99.90
21487;DHT22;10905;50.822;4.336;2023-07-08T03:31:56;21.10;99.90
21487;DHT22;10905;50.822;4.336;2023-07-08T03:34:22;21.10;99.90
21487;DHT22;10905;50.822;4.336;2023-07-08T03:36:49;21.10;99.90
21487;DHT22;10905;50.822;4.336;2023-07-08T03:39:23;21.20;99.90
21487;DHT22;10905;50.822;4.336;2023-07-08T03:41:50;21.10;99.90
21487;DHT22;10905;50.822;4.336;2023-07-08T03:44:15;21.10;99.90
21487;DHT22;10905;50.822;4.336;2023-07-08T03:46:43;21.00;99.90
21487;DHT22;10905;50.822;4.336;2023-07-08T03:49:09;21.00;99.90
21487;DHT22;10905;50.822;4.336;2023-07-08T03:51:38;21.10;99.90
21487;DHT22;10905;50.822;4.336;2023-07-08T03:54:05;21.00;99.90
21487;DHT22;10905;50.822;4.336;2023-07-08T03:56:31;21.00;99.90
21487;DHT22;10905;50.822;4.336;2023-07-08T03:58:57;21.00;99.90
21487;DHT22;10905;50.822;4.336;2023-07-08T04:01:24;21.00;99.90
21487;DHT22;10905;50.822;4.336;2023-07-08T04:03:55;21.00;99.90
21487;DHT22;10905;50.822;4.336;2023-07-08T04:06:22;21.00;99.90
21487;DHT22;10905;50.822;4.336;2023-07-08T04:08:48;20.90;99.90
21487;DHT22;10905;50.822;4.336;2023-07-08T04:11:17;21.00;99.90
21487;DHT22;10905;50.822;4.336;2023-07-08T04:13:43;21.00;99.90
21487;DHT22;10905;50.822;4.336;2023-07-08T04:16:21;21.10;99.90
21487;DHT22;10905;50.822;4.336;2023-07-08T04:18:47;21.10;99.90
21487;DHT22;10905;50.822;4.336;2023-07-08T04:21:16;21.10;99.90
21487;DHT22;10905;50.822;4.336;2023-07-08T04:23:42;21.10;99.90
21487;DHT22;10905;50.822;4.336;2023-07-08T04:26:08;21.20;99.90
21487;DHT22;10905;50.822;4.336;2023-07-08T04:28:34;21.20;99.90
21487;DHT22;10905;50.822;4.336;2023-07-08T04:31:00;21.10;99.90
21487;DHT22;10905;50.822;4.336;2023-07-08T04:33:26;21.10;99.90
21487;DHT22;10905;50.822;4.336;2023-07-08T04:35:51;21.20;99.90
21487;DHT22;10905;50.822;4.336;2023-07-08T04:38:20;21.20;99.90
21487;DHT22;10905;50.822;4.336;2023-07-08T04:40:47;21.20;99.90
21487;DHT22;10905;50.822;4.336;2023-07-08T04:43:13;21.20;99.90
21487;DHT22;10905;50.822;4.336;2023-07-08T04:45:41;21.20;99.90
21487;DHT22;10905;50.822;4.336;2023-07-08T04:48:13;21.30;99.90
21487;DHT22;10905;50.822;4.336;2023-07-08T04:50:41;21.40;99.90
21487;DHT22;10905;50.822;4.336;2023-07-08T04:53:07;21.40;99.90
21487;DHT22;10905;50.822;4.336;2023-07-08T04:55:34;21.40;99.90
21487;DHT22;10905;50.822;4.336;2023-07-08T04:58:00;21.40;99.90
21487;DHT22;10905;50.822;4.336;2023-07-08T05:00:27;21.40;99.90
21487;DHT22;10905;50.822;4.336;2023-07-08T05:02:53;21.50;99.90
21487;DHT22;10905;50.822;4.336;2023-07-08T05:05:19;21.50;99.90
21487;DHT22;10905;50.822;4.336;2023-07-08T05:07:45;21.50;99.90
21487;DHT22;10905;50.822;4.336;2023-07-08T05:10:11;21.60;99.90
21487;DHT22;10905;50.822;4.336;2023-07-08T05:12:37;21.60;99.90
21487;DHT22;10905;50.822;4.336;2023-07-08T05:15:03;21.60;99.90
21487;DHT22;10905;50.822;4.336;2023-07-08T05:17:29;21.70;99.90
21487;DHT22;10905;50.822;4.336;2023-07-08T05:19:55;21.80;99.90
21487;DHT22;10905;50.822;4.336;2023-07-08T05:22:23;21.80;99.90
21487;DHT22;10905;50.822;4.336;2023-07-08T05:24:51;21.90;99.90
21487;DHT22;10905;50.822;4.336;2023-07-08T05:27:18;21.90;99.90
21487;DHT22;10905;50.822;4.336;2023-07-08T05:29:46;22.00;99.90
21487;DHT22;10905;50.822;4.336;2023-07-08T05:32:12;22.00;99.90
21487;DHT22;10905;50.822;4.336;2023-07-08T05:34:37;22.10;99.90
21487;DHT22;10905;50.822;4.336;2023-07-08T05:37:03;22.20;99.90
21487;DHT22;10905;50.822;4.336;2023-07-08T05:39:32;22.30;99.90
21487;DHT22;10905;50.822;4.336;2023-07-08T05:41:58;22.40;99.90
21487;DHT22;10905;50.822;4.336;2023-07-08T05:44:24;22.40;99.90
21487;DHT22;10905;50.822;4.336;2023-07-08T05:46:49;22.50;99.90
21487;DHT22;10905;50.822;4.336;2023-07-08T05:49:15;22.50;99.90
21487;DHT22;10905;50.822;4.336;2023-07-08T05:51:42;22.60;99.90
21487;DHT22;10905;50.822;4.336;2023-07-08T05:54:08;22.60;99.90
21487;DHT22;10905;50.822;4.336;2023-07-08T05:56:34;22.80;99.90
21487;DHT22;10905;50.822;4.336;2023-07-08T05:58:59;22.90;99.90
21487;DHT22;10905;50.822;4.336;2023-07-08T06:01:25;23.00;99.90
21487;DHT22;10905;50.822;4.336;2023-07-08T06:03:50;23.00;99.90
21487;DHT22;10905;50.822;4.336;2023-07-08T06:06:16;23.20;99.90
21487;DHT22;10905;50.822;4.336;2023-07-08T06:08:42;23.20;99.90
21487;DHT22;10905;50.822;4.336;2023-07-08T06:11:08;23.20;99.90
21487;DHT22;10905;50.822;4.336;2023-07-08T06:13:33;23.40;99.90
21487;DHT22;10905;50.822;4.336;2023-07-08T06:15:59;23.50;99.90
21487;DHT22;10905;50.822;4.336;2023-07-08T06:18:25;23.60;99.90
21487;DHT22;10905;50.822;4.336;2023-07-08T06:20:55;23.70;99.90
21487;DHT22;10905;50.822;4.336;2023-07-08T06:23:21;23.80;99.90
21487;DHT22;10905;50.822;4.336;2023-07-08T06:25:46;23.90;99.90
21487;DHT22;10905;50.822;4.336;2023-07-08T06:28:12;24.00;99.90
21487;DHT22;10905;50.822;4.336;2023-07-08T06:30:38;24.00;99.90
21487;DHT22;10905;50.822;4.336;2023-07-08T06:33:04;24.10;99.90
21487;DHT22;10905;50.822;4.336;2023-07-08T06:35:29;24.20;99.90
21487;DHT22;10905;50.822;4.336;2023-07-08T06:37:55;24.30;99.90
21487;DHT22;10905;50.822;4.336;2023-07-08T06:40:20;24.30;99.90
21487;DHT22;10905;50.822;4.336;2023-07-08T06:42:46;24.50;99.90
21487;DHT22;10905;50.822;4.336;2023-07-08T06:45:12;24.50;99.90
21487;DHT22;10905;50.822;4.336;2023-07-08T06:47:38;24.50;99.90
21487;DHT22;10905;50.822;4.336;2023-07-08T06:50:04;24.50;99.90
21487;DHT22;10905;50.822;4.336;2023-07-08T06:52:29;24.60;99.90
21487;DHT22;10905;50.822;4.336;2023-07-08T06:55:05;24.70;99.90
21487;DHT22;10905;50.822;4.336;2023-07-08T06:57:31;24.70;99.90
21487;DHT22;10905;50.822;4.336;2023-07-08T06:59:57;24.80;99.90
21487;DHT22;10905;50.822;4.336;2023-07-08T07:02:23;24.90;99.90
21487;DHT22;10905;50.822;4.336;2023-07-08T07:04:49;25.00;99.90
21487;DHT22;10905;50.822;4.336;2023-07-08T07:07:14;25.00;99.90
21487;DHT22;10905;50.822;4.336;2023-07-08T07:09:40;25.10;99.90
21487;DHT22;10905;50.822;4.336;2023-07-08T07:12:06;25.20;99.90
21487;DHT22;10905;50.822;4.336;2023-07-08T07:14:32;25.30;99.90
21487;DHT22;10905;50.822;4.336;2023-07-08T07:16:58;25.40;99.90
21487;DHT22;10905;50.822;4.336;2023-07-08T07:19:24;25.50;99.90
21487;DHT22;10905;50.822;4.336;2023-07-08T07:21:50;25.60;99.90
21487;DHT22;10905;50.822;4.336;2023-07-08T07:24:15;25.70;99.90
21487;DHT22;10905;50.822;4.336;2023-07-08T07:26:41;25.80;99.90
21487;DHT22;10905;50.822;4.336;2023-07-08T07:29:06;26.00;99.90
21487;DHT22;10905;50.822;4.336;2023-07-08T07:31:32;26.00;99.90
21487;DHT22;10905;50.822;4.336;2023-07-08T07:33:59;26.20;99.90
21487;DHT22;10905;50.822;4.336;2023-07-08T07:36:26;26.30;99.90
21487;DHT22;10905;50.822;4.336;2023-07-08T07:38:51;26.30;99.90
21487;DHT22;10905;50.822;4.336;2023-07-08T07:41:17;26.30;99.90
21487;DHT22;10905;50.822;4.336;2023-07-08T07:43:42;26.40;99.90
21487;DHT22;10905;50.822;4.336;2023-07-08T07:46:08;26.40;99.90
21487;DHT22;10905;50.822;4.336;2023-07-08T07:48:36;26.60;99.90
21487;DHT22;10905;50.822;4.336;2023-07-08T07:51:02;26.60;99.90
21487;DHT22;10905;50.822;4.336;2023-07-08T07:53:27;26.70;99.90
21487;DHT22;10905;50.822;4.336;2023-07-08T07:55:58;26.70;99.90
21487;DHT22;10905;50.822;4.336;2023-07-08T07:58:24;26.90;99.90
21487;DHT22;10905;50.822;4.336;2023-07-08T08:00:49;27.00;99.90
21487;DHT22;10905;50.822;4.336;2023-07-08T08:03:15;27.00;99.90
21487;DHT22;10905;50.822;4.336;2023-07-08T08:05:42;27.00;99.90
21487;DHT22;10905;50.822;4.336;2023-07-08T08:08:07;27.00;99.90
21487;DHT22;10905;50.822;4.336;2023-07-08T08:10:35;27.10;99.90
21487;DHT22;10905;50.822;4.336;2023-07-08T08:13:02;27.10;99.90
21487;DHT22;10905;50.822;4.336;2023-07-08T08:15:27;27.20;99.90
21487;DHT22;10905;50.822;4.336;2023-07-08T08:17:53;27.40;99.60
21487;DHT22;10905;50.822;4.336;2023-07-08T08:20:20;27.50;99.70
21487;DHT22;10905;50.822;4.336;2023-07-08T08:22:46;27.40;99.70
21487;DHT22;10905;50.822;4.336;2023-07-08T08:25:14;27.40;99.90
21487;DHT22;10905;50.822;4.336;2023-07-08T08:27:39;27.30;99.90
21487;DHT22;10905;50.822;4.336;2023-07-08T08:30:05;27.40;99.90
21487;DHT22;10905;50.822;4.336;2023-07-08T08:32:31;27.50;99.90
21487;DHT22;10905;50.822;4.336;2023-07-08T08:34:57;27.50;99.70
21487;DHT22;10905;50.822;4.336;2023-07-08T08:37:23;27.60;99.80
21487;DHT22;10905;50.822;4.336;2023-07-08T08:39:48;27.60;99.40
21487;DHT22;10905;50.822;4.336;2023-07-08T08:42:30;27.70;99.60
21487;DHT22;10905;50.822;4.336;2023-07-08T08:44:57;27.80;99.30
21487;DHT22;10905;50.822;4.336;2023-07-08T08:47:33;27.90;99.30
21487;DHT22;10905;50.822;4.336;2023-07-08T08:50:08;27.90;99.50
21487;DHT22;10905;50.822;4.336;2023-07-08T08:52:39;28.00;99.60
21487;DHT22;10905;50.822;4.336;2023-07-08T08:55:15;28.00;99.80
21487;DHT22;10905;50.822;4.336;2023-07-08T09:03:32;28.00;99.20
21487;DHT22;10905;50.822;4.336;2023-07-08T09:06:00;28.00;99.90
21487;DHT22;10905;50.822;4.336;2023-07-08T09:08:34;28.00;99.10
21487;DHT22;10905;50.822;4.336;2023-07-08T09:13:38;28.30;99.10
21487;DHT22;10905;50.822;4.336;2023-07-08T09:16:10;28.40;99.50
21487;DHT22;10905;50.822;4.336;2023-07-08T09:18:45;28.60;98.90
21487;DHT22;10905;50.822;4.336;2023-07-08T09:21:25;28.70;98.00
21487;DHT22;10905;50.822;4.336;2023-07-08T09:23:55;28.80;98.00
21487;DHT22;10905;50.822;4.336;2023-07-08T09:26:26;28.90;96.80
21487;DHT22;10905;50.822;4.336;2023-07-08T09:28:52;29.00;97.00
21487;DHT22;10905;50.822;4.336;2023-07-08T09:31:27;29.20;95.80
21487;DHT22;10905;50.822;4.336;2023-07-08T09:34:14;29.40;95.90
21487;DHT22;10905;50.822;4.336;2023-07-08T09:36:44;29.30;95.20
21487;DHT22;10905;50.822;4.336;2023-07-08T09:39:11;29.20;94.40
21487;DHT22;10905;50.822;4.336;2023-07-08T09:41:38;29.40;94.20
21487;DHT22;10905;50.822;4.336;2023-07-08T09:46:41;29.50;93.30
21487;DHT22;10905;50.822;4.336;2023-07-08T09:49:21;29.70;93.10
21487;DHT22;10905;50.822;4.336;2023-07-08T09:51:48;30.00;94.30
21487;DHT22;10905;50.822;4.336;2023-07-08T09:54:16;29.90;92.80
21487;DHT22;10905;50.822;4.336;2023-07-08T09:56:44;30.00;93.20
21487;DHT22;10905;50.822;4.336;2023-07-08T09:59:14;30.00;92.10
21487;DHT22;10905;50.822;4.336;2023-07-08T10:01:41;30.10;91.70
21487;DHT22;10905;50.822;4.336;2023-07-08T10:04:07;30.10;92.30
21487;DHT22;10905;50.822;4.336;2023-07-08T10:06:33;30.10;91.20
21487;DHT22;10905;50.822;4.336;2023-07-08T10:09:14;30.30;91.60
21487;DHT22;10905;50.822;4.336;2023-07-08T10:11:51;30.40;90.70
21487;DHT22;10905;50.822;4.336;2023-07-08T10:14:33;30.40;90.70
21487;DHT22;10905;50.822;4.336;2023-07-08T10:17:00;30.40;90.60
21487;DHT22;10905;50.822;4.336;2023-07-08T10:19:26;30.60;91.20
21487;DHT22;10905;50.822;4.336;2023-07-08T10:21:58;30.80;90.20
21487;DHT22;10905;50.822;4.336;2023-07-08T10:30:21;30.90;88.60
21487;DHT22;10905;50.822;4.336;2023-07-08T10:33:16;31.10;87.70
21487;DHT22;10905;50.822;4.336;2023-07-08T10:44:26;31.50;87.20
21487;DHT22;10905;50.822;4.336;2023-07-08T10:52:35;31.80;86.80
21487;DHT22;10905;50.822;4.336;2023-07-08T10:55:14;31.80;86.00
21487;DHT22;10905;50.822;4.336;2023-07-08T11:00:33;31.70;86.40
21487;DHT22;10905;50.822;4.336;2023-07-08T11:05:46;31.50;85.00
21487;DHT22;10905;50.822;4.336;2023-07-08T11:08:48;31.70;84.10
21487;DHT22;10905;50.822;4.336;2023-07-08T11:14:22;31.80;83.40
21487;DHT22;10905;50.822;4.336;2023-07-08T11:19:34;31.80;85.10
21487;DHT22;10905;50.822;4.336;2023-07-08T11:22:06;31.80;84.70
21487;DHT22;10905;50.822;4.336;2023-07-08T11:24:46;32.00;85.10
21487;DHT22;10905;50.822;4.336;2023-07-08T11:27:32;32.20;85.50
21487;DHT22;10905;50.822;4.336;2023-07-08T11:32:41;32.30;85.60
21487;DHT22;10905;50.822;4.336;2023-07-08T11:35:21;32.40;86.70
21487;DHT22;10905;50.822;4.336;2023-07-08T11:37:49;32.30;85.70
21487;DHT22;10905;50.822;4.336;2023-07-08T11:40:19;32.40;85.90
21487;DHT22;10905;50.822;4.336;2023-07-08T11:43:00;32.40;87.00
21487;DHT22;10905;50.822;4.336;2023-07-08T11:45:32;32.70;86.70
21487;DHT22;10905;50.822;4.336;2023-07-08T11:48:26;32.80;87.00
21487;DHT22;10905;50.822;4.336;2023-07-08T11:50:54;32.80;85.40
21487;DHT22;10905;50.822;4.336;2023-07-08T12:03:51;32.50;85.50
21487;DHT22;10905;50.822;4.336;2023-07-08T12:08:59;32.60;87.70
21487;DHT22;10905;50.822;4.336;2023-07-08T12:11:28;32.70;89.10
21487;DHT22;10905;50.822;4.336;2023-07-08T12:13:58;32.80;88.70
21487;DHT22;10905;50.822;4.336;2023-07-08T12:16:27;32.90;88.10
21487;DHT22;10905;50.822;4.336;2023-07-08T12:18:53;33.10;87.90
21487;DHT22;10905;50.822;4.336;2023-07-08T12:21:22;33.10;87.50
21487;DHT22;10905;50.822;4.336;2023-07-08T12:23:49;33.20;87.50
21487;DHT22;10905;50.822;4.336;2023-07-08T12:26:15;33.20;88.30
21487;DHT22;10905;50.822;4.336;2023-07-08T12:28:43;33.30;87.60
21487;DHT22;10905;50.822;4.336;2023-07-08T12:31:15;33.50;87.60
21487;DHT22;10905;50.822;4.336;2023-07-08T12:33:41;33.70;87.00
21487;DHT22;10905;50.822;4.336;2023-07-08T12:36:10;33.70;88.20
21487;DHT22;10905;50.822;4.336;2023-07-08T12:38:41;34.00;89.00
21487;DHT22;10905;50.822;4.336;2023-07-08T12:41:12;34.10;88.00
21487;DHT22;10905;50.822;4.336;2023-07-08T12:43:39;34.10;88.70
21487;DHT22;10905;50.822;4.336;2023-07-08T12:46:05;34.30;87.90
21487;DHT22;10905;50.822;4.336;2023-07-08T12:48:34;34.10;86.80
21487;DHT22;10905;50.822;4.336;2023-07-08T12:51:00;33.90;87.00
21487;DHT22;10905;50.822;4.336;2023-07-08T12:53:26;33.60;89.30
21487;DHT22;10905;50.822;4.336;2023-07-08T12:55:55;33.30;90.40
21487;DHT22;10905;50.822;4.336;2023-07-08T12:58:29;33.10;91.40
21487;DHT22;10905;50.822;4.336;2023-07-08T13:00:56;32.50;91.80
21487;DHT22;10905;50.822;4.336;2023-07-08T13:03:35;32.10;91.50
21487;DHT22;10905;50.822;4.336;2023-07-08T13:06:03;31.70;90.90
21487;DHT22;10905;50.822;4.336;2023-07-08T13:08:33;31.20;90.60
21487;DHT22;10905;50.822;4.336;2023-07-08T13:11:01;31.00;90.50
21487;DHT22;10905;50.822;4.336;2023-07-08T13:13:38;30.70;91.00
21487;DHT22;10905;50.822;4.336;2023-07-08T13:16:05;30.40;92.00
21487;DHT22;10905;50.822;4.336;2023-07-08T13:18:32;30.00;92.70
21487;DHT22;10905;50.822;4.336;2023-07-08T13:20:59;29.70;93.80
21487;DHT22;10905;50.822;4.336;2023-07-08T13:23:26;29.70;95.00
21487;DHT22;10905;50.822;4.336;2023-07-08T13:25:53;29.70;94.80
21487;DHT22;10905;50.822;4.336;2023-07-08T13:31:01;29.50;95.50
21487;DHT22;10905;50.822;4.336;2023-07-08T13:33:32;29.30;96.40
21487;DHT22;10905;50.822;4.336;2023-07-08T13:36:02;29.20;97.00
21487;DHT22;10905;50.822;4.336;2023-07-08T13:38:32;29.20;98.00
21487;DHT22;10905;50.822;4.336;2023-07-08T13:41:03;29.30;98.30
21487;DHT22;10905;50.822;4.336;2023-07-08T13:43:31;29.40;98.30
21487;DHT22;10905;50.822;4.336;2023-07-08T13:45:58;29.60;98.80
21487;DHT22;10905;50.822;4.336;2023-07-08T13:51:08;29.90;99.20
21487;DHT22;10905;50.822;4.336;2023-07-08T13:53:48;30.30;99.20
21487;DHT22;10905;50.822;4.336;2023-07-08T13:56:19;30.70;98.80
21487;DHT22;10905;50.822;4.336;2023-07-08T13:58:48;30.90;99.10
21487;DHT22;10905;50.822;4.336;2023-07-08T14:01:23;31.20;97.80
21487;DHT22;10905;50.822;4.336;2023-07-08T14:03:51;31.40;94.90
21487;DHT22;10905;50.822;4.336;2023-07-08T14:06:21;31.60;94.70
21487;DHT22;10905;50.822;4.336;2023-07-08T14:08:48;32.00;92.70
21487;DHT22;10905;50.822;4.336;2023-07-08T14:11:13;32.40;91.00
21487;DHT22;10905;50.822;4.336;2023-07-08T14:13:39;32.80;90.40
21487;DHT22;10905;50.822;4.336;2023-07-08T14:16:22;33.10;89.30
21487;DHT22;10905;50.822;4.336;2023-07-08T14:18:49;33.20;86.50
21487;DHT22;10905;50.822;4.336;2023-07-08T14:21:15;33.20;88.10
21487;DHT22;10905;50.822;4.336;2023-07-08T14:23:41;33.10;88.10
21487;DHT22;10905;50.822;4.336;2023-07-08T14:26:12;33.30;84.80
21487;DHT22;10905;50.822;4.336;2023-07-08T14:28:38;33.30;89.30
21487;DHT22;10905;50.822;4.336;2023-07-08T14:31:11;33.00;88.70
21487;DHT22;10905;50.822;4.336;2023-07-08T14:33:38;33.20;91.30
21487;DHT22;10905;50.822;4.336;2023-07-08T14:36:10;33.40;90.30
21487;DHT22;10905;50.822;4.336;2023-07-08T14:38:37;33.50;90.40
21487;DHT22;10905;50.822;4.336;2023-07-08T14:41:03;33.50;90.90
21487;DHT22;10905;50.822;4.336;2023-07-08T14:43:30;33.60;88.90
21487;DHT22;10905;50.822;4.336;2023-07-08T14:46:01;33.60;90.00
21487;DHT22;10905;50.822;4.336;2023-07-08T14:48:32;33.70;88.60
21487;DHT22;10905;50.822;4.336;2023-07-08T14:50:58;33.60;87.80
21487;DHT22;10905;50.822;4.336;2023-07-08T14:53:24;33.50;88.00
21487;DHT22;10905;50.822;4.336;2023-07-08T14:55:52;33.60;86.80
21487;DHT22;10905;50.822;4.336;2023-07-08T14:58:29;33.60;87.70
21487;DHT22;10905;50.822;4.336;2023-07-08T15:00:57;33.60;86.90
21487;DHT22;10905;50.822;4.336;2023-07-08T15:03:24;33.80;87.20
21487;DHT22;10905;50.822;4.336;2023-07-08T15:05:50;34.00;86.50
21487;DHT22;10905;50.822;4.336;2023-07-08T15:08:15;34.10;86.70
21487;DHT22;10905;50.822;4.336;2023-07-08T15:10:49;34.00;86.30
21487;DHT22;10905;50.822;4.336;2023-07-08T15:13:20;33.90;86.10
21487;DHT22;10905;50.822;4.336;2023-07-08T15:15:47;33.80;87.60
21487;DHT22;10905;50.822;4.336;2023-07-08T15:18:17;33.60;88.50
21487;DHT22;10905;50.822;4.336;2023-07-08T15:20:43;33.70;90.10
21487;DHT22;10905;50.822;4.336;2023-07-08T15:23:10;33.80;87.50
21487;DHT22;10905;50.822;4.336;2023-07-08T15:25:36;34.00;89.30
21487;DHT22;10905;50.822;4.336;2023-07-08T15:28:03;33.70;88.60
21487;DHT22;10905;50.822;4.336;2023-07-08T15:30:29;33.70;91.70
21487;DHT22;10905;50.822;4.336;2023-07-08T15:32:56;33.70;92.20
21487;DHT22;10905;50.822;4.336;2023-07-08T15:35:26;33.90;92.20
21487;DHT22;10905;50.822;4.336;2023-07-08T15:37:59;34.10;92.30
21487;DHT22;10905;50.822;4.336;2023-07-08T15:40:31;34.20;92.20
21487;DHT22;10905;50.822;4.336;2023-07-08T15:42:58;34.10;92.60
21487;DHT22;10905;50.822;4.336;2023-07-08T15:45:28;34.00;92.50
21487;DHT22;10905;50.822;4.336;2023-07-08T15:47:54;34.20;92.60
21487;DHT22;10905;50.822;4.336;2023-07-08T15:50:24;34.50;92.90
21487;DHT22;10905;50.822;4.336;2023-07-08T15:52:50;34.40;92.10
21487;DHT22;10905;50.822;4.336;2023-07-08T15:55:23;34.40;93.00
21487;DHT22;10905;50.822;4.336;2023-07-08T15:57:55;34.50;93.00
21487;DHT22;10905;50.822;4.336;2023-07-08T16:00:24;34.60;93.20
21487;DHT22;10905;50.822;4.336;2023-07-08T16:02:53;34.60;91.40
21487;DHT22;10905;50.822;4.336;2023-07-08T16:05:20;34.60;91.10
21487;DHT22;10905;50.822;4.336;2023-07-08T16:07:47;34.60;91.70
21487;DHT22;10905;50.822;4.336;2023-07-08T16:10:14;34.40;91.80
21487;DHT22;10905;50.822;4.336;2023-07-08T16:12:40;34.40;91.70
21487;DHT22;10905;50.822;4.336;2023-07-08T16:15:12;34.30;91.90
21487;DHT22;10905;50.822;4.336;2023-07-08T16:17:38;33.90;91.60
21487;DHT22;10905;50.822;4.336;2023-07-08T16:20:17;33.80;92.00
21487;DHT22;10905;50.822;4.336;2023-07-08T16:22:44;33.30;92.20
21487;DHT22;10905;50.822;4.336;2023-07-08T16:25:18;33.20;92.50
21487;DHT22;10905;50.822;4.336;2023-07-08T16:27:46;33.20;92.30
21487;DHT22;10905;50.822;4.336;2023-07-08T16:30:15;33.10;91.80
21487;DHT22;10905;50.822;4.336;2023-07-08T16:32:41;33.20;92.50
21487;DHT22;10905;50.822;4.336;2023-07-08T16:35:10;33.40;92.30
21487;DHT22;10905;50.822;4.336;2023-07-08T16:37:35;33.50;92.30
21487;DHT22;10905;50.822;4.336;2023-07-08T16:40:01;33.50;92.70
21487;DHT22;10905;50.822;4.336;2023-07-08T16:42:27;33.70;91.80
21487;DHT22;10905;50.822;4.336;2023-07-08T16:44:53;33.60;91.60
21487;DHT22;10905;50.822;4.336;2023-07-08T16:47:19;33.60;91.80
21487;DHT22;10905;50.822;4.336;2023-07-08T16:49:44;33.80;92.10